Time;durP1;ratioP1;P1;durP2;ratioP2;P2;SDS_P1;SDS_P2;PMS_P1;PMS_P2;Temp;Humidity;BMP_temperature;BMP_pressure;BME280_temperature;BME280_humidity;BME280_pressure;Samples;Min_cycle;Max_cycle;Signal;HPM_P1;HPM_P2
2022/11/15 00:00:02;;;;;;;5.37;2.10;;;;;;;9.25;100.00;96067.81;4989121;28;20189;-85
2022/11/15 00:02:46;;;;;;;5.93;2.30;;;;;;;9.10;100.00;96063.13;4991280;28;20408;-86
2022/11/15 00:05:34;;;;;;;4.17;1.93;;;;;;;8.95;100.00;96059.41;4958878;28;20049;-85
2022/11/15 00:08:18;;;;;;;4.50;2.07;;;;;;;8.88;100.00;96063.63;4986167;28;20049;-85
2022/11/15 00:11:03;;;;;;;5.30;2.50;;;;;;;8.82;100.00;96064.22;4982409;28;20072;-85
2022/11/15 00:13:47;;;;;;;6.27;2.60;;;;;;;8.91;100.00;96064.16;4986253;28;20639;-86
2022/11/15 00:16:32;;;;;;;7.70;3.33;;;;;;;8.88;100.00;96058.38;4966454;28;20041;-85
2022/11/15 00:19:16;;;;;;;9.53;3.53;;;;;;;8.92;100.00;96051.84;4965917;28;20146;-86
2022/11/15 00:22:11;;;;;;;9.57;4.00;;;;;;;9.00;100.00;96051.94;4980862;28;20135;-85
2022/11/15 00:24:55;;;;;;;7.37;2.73;;;;;;;8.96;100.00;96053.22;4974421;28;20073;-85
2022/11/15 00:27:40;;;;;;;8.37;3.83;;;;;;;8.97;100.00;96046.97;4969157;28;20142;-86
2022/11/15 00:30:24;;;;;;;5.47;3.07;;;;;;;9.02;100.00;96049.97;4977189;28;20138;-85
2022/11/15 00:33:09;;;;;;;7.60;3.13;;;;;;;9.04;100.00;96047.19;4984681;28;20459;-86
2022/11/15 00:36:02;;;;;;;8.30;3.33;;;;;;;9.04;100.00;96042.75;4967686;28;20123;-85
2022/11/15 00:38:46;;;;;;;7.40;2.90;;;;;;;9.08;100.00;96044.09;4985504;28;20045;-86
2022/11/15 00:41:30;;;;;;;7.63;3.07;;;;;;;9.10;100.00;96036.09;4969017;28;20097;-85
2022/11/15 00:44:14;;;;;;;4.77;2.57;;;;;;;9.11;100.00;96030.66;4969834;28;20895;-85
2022/11/15 00:46:58;;;;;;;4.73;1.70;;;;;;;9.17;100.00;96027.44;4967121;28;20046;-86
2022/11/15 00:49:45;;;;;;;5.40;1.83;;;;;;;9.19;100.00;96030.72;4975752;28;20044;-86
2022/11/15 00:52:30;;;;;;;4.73;2.10;;;;;;;9.24;100.00;96021.56;4986514;28;20873;-85
2022/11/15 00:55:22;;;;;;;5.50;2.20;;;;;;;9.27;100.00;96026.50;4975696;28;20073;-85
2022/11/15 00:58:06;;;;;;;4.50;1.50;;;;;;;9.37;100.00;96011.47;4973071;28;20166;-85
2022/11/15 01:01:18;;;;;;;6.07;2.00;;;;;;;9.40;100.00;96008.53;4964965;28;20181;-85
2022/11/15 01:04:03;;;;;;;2.13;1.40;;;;;;;9.41;100.00;96010.16;4981759;28;20088;-85
2022/11/15 01:06:52;;;;;;;7.37;1.80;;;;;;;9.43;100.00;96008.22;4974056;28;20096;-85
2022/11/15 01:09:36;;;;;;;3.93;1.53;;;;;;;9.33;100.00;96010.97;4986631;28;20044;-85
2022/11/15 01:12:23;;;;;;;4.53;1.70;;;;;;;9.28;100.00;96007.97;4984353;28;20046;-85
2022/11/15 01:15:08;;;;;;;3.77;1.60;;;;;;;9.29;100.00;95996.50;4990267;28;20172;-85
2022/11/15 01:17:52;;;;;;;6.10;1.87;;;;;;;9.16;100.00;96004.00;4976009;28;20081;-85
2022/11/15 01:20:42;;;;;;;5.20;2.00;;;;;;;9.12;100.00;96008.72;4977840;28;20101;-85
2022/11/15 01:23:55;;;;;;;6.83;2.30;;;;;;;9.03;100.00;96004.41;4971319;28;20134;-85
2022/11/15 01:26:40;;;;;;;3.92;1.65;;;;;;;9.01;100.00;96001.09;4986650;28;20054;-85
2022/11/15 01:29:24;;;;;;;5.13;2.20;;;;;;;8.94;100.00;95997.47;4986486;28;20134;-85
2022/11/15 01:32:09;;;;;;;5.50;2.37;;;;;;;8.92;100.00;96002.88;4970427;28;20212;-85
2022/11/15 01:34:53;;;;;;;4.53;1.87;;;;;;;8.92;100.00;95988.91;4975800;28;20064;-85
2022/11/15 01:37:38;;;;;;;6.23;2.67;;;;;;;8.92;100.00;95996.78;4968585;28;20166;-85
2022/11/15 01:40:22;;;;;;;4.57;1.90;;;;;;;8.88;100.00;95990.22;4969166;28;20050;-85
2022/11/15 01:43:26;;;;;;;4.13;2.07;;;;;;;8.82;100.00;95996.06;4992184;28;20069;-86
2022/11/15 01:46:28;;;;;;;5.88;2.05;;;;;;;8.75;100.00;95995.84;4972177;28;20128;-85
2022/11/15 01:49:17;;;;;;;5.90;3.30;;;;;;;8.71;100.00;95995.34;4982339;28;20053;-86
2022/11/15 01:52:09;;;;;;;5.47;2.70;;;;;;;8.80;100.00;95987.53;4975080;28;20049;-85
2022/11/15 01:54:59;;;;;;;4.73;2.10;;;;;;;8.68;100.00;95984.34;4978951;28;20153;-85
2022/11/15 01:57:46;;;;;;;5.03;1.80;;;;;;;8.68;100.00;95979.09;5003755;28;20145;-85
2022/11/15 02:00:31;;;;;;;5.70;2.10;;;;;;;8.72;100.00;95976.03;5006927;28;20096;-85
2022/11/15 02:03:16;;;;;;;4.00;2.20;;;;;;;8.69;100.00;95973.72;4993468;28;20100;-85
2022/11/15 02:06:10;;;;;;;4.27;1.83;;;;;;;8.61;100.00;95970.19;4971875;28;20069;-85
2022/11/15 02:08:56;;;;;;;4.27;2.10;;;;;;;8.71;100.00;95968.31;4993988;28;20120;-85
2022/11/15 02:11:41;;;;;;;6.07;2.07;;;;;;;8.69;100.00;95970.28;4980002;28;20049;-86
2022/11/15 02:14:28;;;;;;;4.10;2.37;;;;;;;8.61;100.00;95960.53;4985579;28;20040;-85
2022/11/15 02:17:24;;;;;;;2.97;1.70;;;;;;;8.66;100.00;95960.91;4979219;28;20097;-85
2022/11/15 02:20:51;;;;;;;8.63;2.30;;;;;;;8.69;100.00;95960.59;4994879;28;20110;-85
2022/11/15 02:23:53;;;;;;;6.00;3.00;;;;;;;8.64;100.00;95956.78;4950083;28;20108;-85
2022/11/15 02:27:15;;;;;;;6.90;2.77;;;;;;;8.62;100.00;95954.34;4988654;28;20701;-85
2022/11/15 02:30:21;;;;;;;5.60;2.50;;;;;;;8.66;100.00;95945.19;4989409;28;20064;-85
2022/11/15 02:33:34;;;;;;;6.30;2.50;;;;;;;8.56;100.00;95943.66;4991285;28;20049;-85
2022/11/15 02:37:02;;;;;;;3.80;1.90;;;;;;;8.43;100.00;95931.75;4985394;28;20044;-85
2022/11/15 02:40:17;;;;;;;5.07;1.80;;;;;;;8.29;100.00;95932.28;4970586;28;20061;-85
2022/11/15 02:49:53;;;;;;;4.90;2.00;;;;;;;8.09;100.00;95939.50;4978921;28;20061;-85
2022/11/15 02:52:39;;;;;;;3.95;2.15;;;;;;;8.03;100.00;95935.69;4980261;28;20126;-85
2022/11/15 02:55:35;;;;;;;3.07;1.90;;;;;;;7.96;100.00;95937.25;4972878;28;20053;-84
2022/11/15 02:58:52;;;;;;;4.33;2.30;;;;;;;7.91;100.00;95934.25;4985758;28;20041;-85
2022/11/15 03:01:56;;;;;;;6.13;2.10;;;;;;;7.83;100.00;95936.00;4983415;28;20063;-85
2022/11/15 03:04:58;;;;;;;4.97;2.30;;;;;;;7.87;100.00;95932.09;4983405;28;20081;-85
2022/11/15 03:08:05;;;;;;;5.70;2.10;;;;;;;7.88;100.00;95931.09;4990087;28;20049;-85
2022/11/15 03:11:21;;;;;;;8.83;2.53;;;;;;;7.87;100.00;95929.47;4992186;28;20045;-85
2022/11/15 03:14:28;;;;;;;5.53;2.30;;;;;;;7.86;100.00;95931.28;4996408;28;20399;-85
2022/11/15 03:17:30;;;;;;;5.13;2.47;;;;;;;7.94;100.00;95931.34;4975676;28;20038;-85
2022/11/15 03:20:17;;;;;;;7.27;2.30;;;;;;;7.91;100.00;95938.66;4977126;28;20069;-85
2022/11/15 03:23:09;;;;;;;5.43;2.70;;;;;;;7.86;100.00;95930.47;4991080;28;20105;-85
2022/11/15 03:25:56;;;;;;;8.07;2.57;;;;;;;7.76;100.00;95931.34;4971602;28;20508;-86
2022/11/15 03:28:50;;;;;;;4.80;2.10;;;;;;;7.72;100.00;95931.81;4979457;28;20566;-85
2022/11/15 03:31:47;;;;;;;7.23;2.83;;;;;;;7.69;100.00;95924.25;4963997;28;20041;-85
2022/11/15 03:34:47;;;;;;;4.83;2.43;;;;;;;7.64;100.00;95922.06;4966862;28;20052;-85
2022/11/15 03:37:57;;;;;;;7.13;3.00;;;;;;;7.57;100.00;95923.63;4991316;28;20055;-85
2022/11/15 03:40:52;;;;;;;8.63;3.20;;;;;;;7.54;100.00;95922.16;4973849;28;20049;-85
2022/11/15 03:43:47;;;;;;;7.03;3.57;;;;;;;7.59;100.00;95913.84;4987566;28;20045;-85
2022/11/15 03:46:46;;;;;;;7.20;4.00;;;;;;;7.51;100.00;95919.81;4974786;28;20040;-84
2022/11/15 03:49:35;;;;;;;9.53;3.87;;;;;;;7.52;100.00;95918.03;4987034;28;20068;-86
2022/11/15 03:52:20;;;;;;;8.87;4.60;;;;;;;7.49;100.00;95915.69;4972600;28;20042;-85
2022/11/15 03:55:08;;;;;;;7.43;4.37;;;;;;;7.48;100.00;95909.66;4978926;28;20108;-85
2022/11/15 03:57:57;;;;;;;8.53;4.10;;;;;;;7.44;100.00;95908.28;4990435;28;20583;-85
2022/11/15 04:00:41;;;;;;;11.20;5.17;;;;;;;7.43;100.00;95914.50;4975901;28;20045;-85
2022/11/15 04:03:26;;;;;;;9.63;4.90;;;;;;;7.37;100.00;95909.03;4974039;28;20048;-85
2022/11/15 04:06:16;;;;;;;10.20;5.50;;;;;;;7.34;100.00;95897.06;4983834;28;20088;-85
2022/11/15 04:09:01;;;;;;;13.00;8.00;;;;;;;7.31;100.00;95900.00;4981248;28;21008;-85
2022/11/15 04:11:45;;;;;;;13.20;7.80;;;;;;;7.29;100.00;95905.34;4969429;28;20060;-84
2022/11/15 04:14:29;;;;;;;15.63;6.97;;;;;;;7.26;100.00;95903.03;4968818;28;20086;-85
2022/11/15 04:17:14;;;;;;;17.77;10.10;;;;;;;7.28;100.00;95901.09;4969325;28;20119;-84
2022/11/15 04:26:22;;;;;;;24.87;14.57;;;;;;;7.14;100.00;95893.72;4991197;28;20046;-85
2022/11/15 04:32:10;;;;;;;11.73;7.27;;;;;;;7.09;100.00;95898.59;4983651;28;20052;-85
2022/11/15 04:34:54;;;;;;;14.03;6.70;;;;;;;7.04;100.00;95900.81;4963932;28;20052;-85
2022/11/15 04:37:38;;;;;;;12.90;6.43;;;;;;;7.02;100.00;95900.97;4976641;28;20037;-84
2022/11/15 04:40:46;;;;;;;14.47;7.73;;;;;;;7.02;100.00;95895.72;4964697;28;20070;-85
2022/11/15 04:43:30;;;;;;;10.80;6.47;;;;;;;7.01;100.00;95898.50;4978161;28;20041;-85
2022/11/15 04:46:14;;;;;;;9.63;6.70;;;;;;;6.92;100.00;95899.38;4992347;28;20040;-85
2022/11/15 04:48:59;;;;;;;12.43;8.37;;;;;;;6.89;100.00;95890.03;4989427;28;20053;-84
2022/11/15 04:51:44;;;;;;;18.10;7.13;;;;;;;6.82;100.00;95884.53;4974618;28;20046;-85
2022/11/15 04:54:28;;;;;;;13.57;9.00;;;;;;;6.78;100.00;95888.41;4969865;28;20751;-85
2022/11/15 04:57:38;;;;;;;12.70;7.37;;;;;;;6.76;100.00;95890.34;4983130;28;20069;-85
2022/11/15 05:00:22;;;;;;;12.63;8.00;;;;;;;6.79;100.00;95889.25;4966115;28;20113;-85
2022/11/15 05:06:11;;;;;;;12.33;8.23;;;;;;;6.86;100.00;95879.84;4989470;28;20092;-85
2022/11/15 05:08:56;;;;;;;17.80;8.00;;;;;;;6.89;100.00;95876.13;4981143;28;20077;-85
2022/11/15 05:11:43;;;;;;;16.27;8.50;;;;;;;6.84;100.00;95874.78;4975867;28;20053;-85
2022/11/15 05:14:27;;;;;;;17.17;9.30;;;;;;;6.90;100.00;95880.38;4969485;28;20045;-83
2022/11/15 05:17:11;;;;;;;12.90;8.23;;;;;;;6.90;100.00;95875.97;4963487;28;20120;-87
2022/11/15 05:19:58;;;;;;;17.40;10.33;;;;;;;6.90;100.00;95875.16;4994391;28;20049;-84
2022/11/15 05:22:42;;;;;;;20.53;12.67;;;;;;;6.82;100.00;95876.72;4990174;28;20396;-84
2022/11/15 05:25:27;;;;;;;17.90;9.83;;;;;;;6.84;100.00;95880.00;4976818;28;20466;-84
2022/11/15 05:28:15;;;;;;;12.97;9.07;;;;;;;6.83;100.00;95880.13;4983313;28;20109;-84
2022/11/15 05:31:18;;;;;;;13.53;8.33;;;;;;;6.86;100.00;95872.00;4981918;28;20053;-84
2022/11/15 05:34:05;;;;;;;12.83;6.63;;;;;;;6.86;100.00;95874.63;4984716;28;20053;-84
2022/11/15 05:36:51;;;;;;;13.83;8.93;;;;;;;6.91;100.00;95867.19;4984896;28;20518;-84
2022/11/15 05:39:35;;;;;;;19.40;9.53;;;;;;;6.91;100.00;95861.09;4982586;28;20053;-84
2022/11/15 05:42:20;;;;;;;16.37;9.80;;;;;;;6.92;100.00;95860.16;4975145;28;20050;-85
2022/11/15 05:45:08;;;;;;;13.57;7.67;;;;;;;6.95;100.00;95857.25;4983666;28;20049;-84
2022/11/15 05:47:55;;;;;;;12.40;7.67;;;;;;;6.93;100.00;95844.31;4981807;28;20057;-85
2022/11/15 05:50:43;;;;;;;11.10;7.33;;;;;;;6.97;100.00;95850.06;4988822;28;20088;-83
2022/11/15 05:53:27;;;;;;;15.33;6.37;;;;;;;6.95;100.00;95849.41;4986783;28;20048;-84
2022/11/15 05:56:14;;;;;;;13.43;6.60;;;;;;;6.93;100.00;95843.50;4968461;28;20125;-84
2022/11/15 05:59:19;;;;;;;9.80;6.13;;;;;;;6.87;100.00;95851.91;4985241;28;20163;-84
2022/11/15 06:02:07;;;;;;;14.83;6.70;;;;;;;6.91;100.00;95848.03;4991582;28;20050;-84
2022/11/15 06:04:59;;;;;;;11.10;6.60;;;;;;;6.94;100.00;95845.97;4984451;28;20519;-83
2022/11/15 06:07:44;;;;;;;13.17;7.03;;;;;;;6.90;100.00;95846.41;4961343;28;20081;-82
2022/11/15 06:10:28;;;;;;;9.67;6.10;;;;;;;6.90;100.00;95854.25;4960826;28;20129;-82
2022/11/15 06:13:14;;;;;;;12.87;8.00;;;;;;;6.90;100.00;95856.84;4986787;28;20045;-83
2022/11/15 06:16:01;;;;;;;17.97;11.50;;;;;;;6.87;100.00;95863.19;4987084;28;20061;-83
2022/11/15 06:18:46;;;;;;;16.27;11.20;;;;;;;6.89;100.00;95863.06;4969913;28;20560;-83
2022/11/15 06:21:32;;;;;;;27.77;17.80;;;;;;;6.84;100.00;95863.47;4986126;28;20101;-83
2022/11/15 06:24:40;;;;;;;19.07;11.43;;;;;;;7.01;100.00;95861.91;4970160;28;20045;-87
2022/11/15 06:27:25;;;;;;;15.83;8.80;;;;;;;6.77;100.00;95873.72;4984180;28;20045;-82
2022/11/15 06:30:10;;;;;;;12.40;7.70;;;;;;;6.79;100.00;95870.94;4972453;28;20100;-82
2022/11/15 06:33:11;;;;;;;13.73;7.50;;;;;;;6.71;100.00;95882.13;4989847;28;20496;-82
2022/11/15 06:36:01;;;;;;;14.20;7.80;;;;;;;6.60;100.00;95874.44;4982286;28;20061;-82
2022/11/15 06:38:49;;;;;;;23.60;9.53;;;;;;;6.55;100.00;95876.69;4957954;28;20056;-82
2022/11/15 06:41:44;;;;;;;12.67;7.50;;;;;;;6.56;100.00;95868.69;4958062;28;20042;-82
2022/11/15 06:44:45;;;;;;;13.57;7.23;;;;;;;6.59;100.00;95873.63;4946858;29;20678;-82
2022/11/15 06:47:47;;;;;;;14.33;6.93;;;;;;;6.82;100.00;95874.09;4953722;28;20094;-85
2022/11/15 06:50:34;;;;;;;14.60;7.80;;;;;;;6.83;100.00;95873.13;4949279;28;20413;-83
2022/11/15 06:53:23;;;;;;;13.23;8.40;;;;;;;6.75;100.00;95865.19;4940734;28;20097;-85
2022/11/15 06:56:08;;;;;;;13.93;9.13;;;;;;;6.85;100.00;95863.34;4926645;28;20053;-83
2022/11/15 06:59:01;;;;;;;17.33;9.00;;;;;;;6.88;100.00;95872.69;4941081;28;20082;-83
2022/11/15 07:01:46;;;;;;;19.60;12.17;;;;;;;7.07;100.00;95871.75;4935155;28;20070;-83
2022/11/15 07:04:38;;;;;;;19.73;13.63;;;;;;;7.05;100.00;95874.53;4942297;28;22567;-86
2022/11/15 07:07:39;;;;;;;17.07;11.20;;;;;;;7.00;100.00;95876.75;4957031;28;20512;-84
2022/11/15 07:10:25;;;;;;;17.27;10.40;;;;;;;7.05;100.00;95868.47;4962027;28;20045;-84
2022/11/15 07:13:18;;;;;;;11.47;8.23;;;;;;;7.11;100.00;95875.75;4966852;28;20058;-84
2022/11/15 07:16:07;;;;;;;13.05;8.70;;;;;;;7.16;100.00;95864.84;4942731;28;20089;-84
2022/11/15 07:18:58;;;;;;;10.87;8.13;;;;;;;7.13;100.00;95876.41;4943587;29;20043;-83
2022/11/15 07:21:52;;;;;;;13.10;8.27;;;;;;;7.16;100.00;95865.66;4949759;29;20166;-84
2022/11/15 07:24:36;;;;;;;14.00;8.60;;;;;;;7.33;100.00;95869.25;4950682;28;20532;-85
2022/11/15 07:27:21;;;;;;;15.10;9.67;;;;;;;7.55;100.00;95875.88;4949717;28;20110;-84
2022/11/15 07:30:15;;;;;;;17.37;8.37;;;;;;;7.49;100.00;95866.00;4954394;28;20114;-84
2022/11/15 07:33:03;;;;;;;13.60;8.00;;;;;;;7.77;100.00;95861.47;4939274;29;20058;-84
2022/11/15 07:35:52;;;;;;;14.20;7.73;;;;;;;8.02;100.00;95852.84;4955039;28;20073;-84
2022/11/15 07:38:36;;;;;;;9.80;6.00;;;;;;;8.23;100.00;95846.44;4949345;29;20114;-83
2022/11/15 07:41:26;;;;;;;9.80;6.13;;;;;;;8.43;100.00;95841.84;4961604;28;20049;-84
2022/11/15 07:44:22;;;;;;;8.53;6.03;;;;;;;8.70;100.00;95831.16;4939810;28;20093;-84
2022/11/15 07:47:16;;;;;;;13.37;5.63;;;;;;;9.12;100.00;95826.88;4949817;28;20058;-86
2022/11/15 07:50:09;;;;;;;10.57;5.93;;;;;;;9.32;100.00;95820.38;4966486;28;20045;-83
2022/11/15 07:52:58;;;;;;;8.97;5.97;;;;;;;9.43;100.00;95814.81;4950430;28;20564;-84
2022/11/15 07:55:45;;;;;;;14.00;5.70;;;;;;;9.58;100.00;95812.34;4957626;28;20103;-84
2022/11/15 07:58:33;;;;;;;11.70;6.17;;;;;;;9.58;100.00;95820.22;4954898;28;20443;-84
2022/11/15 08:01:22;;;;;;;11.13;5.60;;;;;;;9.55;100.00;95817.94;4953679;28;20636;-84
2022/11/15 08:04:07;;;;;;;9.23;5.37;;;;;;;9.62;100.00;95811.06;4948928;28;20050;-84
2022/11/15 08:06:51;;;;;;;9.93;5.30;;;;;;;9.57;100.00;95804.66;4971318;28;20523;-84
2022/11/15 08:09:35;;;;;;;8.03;5.13;;;;;;;9.71;100.00;95797.94;4953256;28;20049;-84
2022/11/15 08:12:22;;;;;;;8.23;4.87;;;;;;;10.06;100.00;95805.47;4964780;28;20397;-81
2022/11/15 08:15:10;;;;;;;10.53;4.93;;;;;;;10.03;100.00;95795.28;4952104;28;20117;-83
2022/11/15 08:18:03;;;;;;;10.27;5.43;;;;;;;10.10;100.00;95785.75;4947229;28;20077;-83
2022/11/15 08:20:47;;;;;;;11.53;5.80;;;;;;;10.68;100.00;95775.91;4967663;28;20046;-84
2022/11/15 08:23:32;;;;;;;12.83;6.87;;;;;;;11.33;100.00;95764.19;4967139;28;20045;-85
2022/11/15 08:26:24;;;;;;;10.77;5.57;;;;;;;10.93;100.00;95763.47;4947106;28;20054;-83
2022/11/15 08:29:08;;;;;;;8.40;4.97;;;;;;;11.32;100.00;95752.84;4927349;28;20041;-83
2022/11/15 08:31:55;;;;;;;7.93;4.70;;;;;;;11.30;100.00;95759.25;4925035;28;20050;-83
2022/11/15 08:34:40;;;;;;;9.07;5.57;;;;;;;11.41;100.00;95750.16;4924934;28;20085;-82
2022/11/15 08:37:25;;;;;;;8.57;4.87;;;;;;;11.68;100.00;95740.88;4919693;28;20138;-82
2022/11/15 08:40:10;;;;;;;10.67;5.03;;;;;;;11.68;100.00;95754.06;4963262;28;20034;-83
2022/11/15 08:42:55;;;;;;;9.33;4.97;;;;;;;12.22;100.00;95744.16;4948160;28;20053;-83
2022/11/15 08:45:40;;;;;;;9.13;4.63;;;;;;;12.85;100.00;95739.31;4941835;28;20034;-83
2022/11/15 08:48:25;;;;;;;7.53;4.60;;;;;;;12.56;100.00;95734.06;4966882;28;20543;-84
2022/11/15 08:51:09;;;;;;;9.67;4.90;;;;;;;13.55;100.00;95734.38;4962481;28;20055;-84
2022/11/15 08:53:58;;;;;;;8.33;4.67;;;;;;;13.81;100.00;95733.75;4948113;28;20124;-83
2022/11/15 08:56:43;;;;;;;9.93;6.10;;;;;;;14.42;100.00;95731.31;4951283;28;20047;-84
2022/11/15 08:59:27;;;;;;;9.32;5.70;;;;;;;14.33;100.00;95729.84;4947260;28;20049;-84
2022/11/15 09:02:17;;;;;;;8.45;4.82;;;;;;;13.59;100.00;95732.97;4954881;28;20080;-84
2022/11/15 09:05:00;;;;;;;6.70;4.22;;;;;;;13.42;100.00;95735.88;4960608;28;20057;-83
2022/11/15 09:07:45;;;;;;;9.23;5.03;;;;;;;13.36;100.00;95726.06;4967878;28;20789;-84
2022/11/15 09:10:33;;;;;;;7.13;3.83;;;;;;;13.30;100.00;95726.00;4964214;28;20081;-83
2022/11/15 09:13:36;;;;;;;8.32;4.88;;;;;;;12.73;100.00;95725.75;4947773;28;20456;-94
2022/11/15 09:16:21;;;;;;;7.32;3.83;;;;;;;13.12;100.00;95718.47;4960464;28;20051;-84
2022/11/15 09:19:08;;;;;;;6.87;4.17;;;;;;;13.90;100.00;95709.63;4964789;28;20097;-85
2022/11/15 09:21:56;;;;;;;8.40;4.75;;;;;;;13.46;100.00;95711.72;4952308;28;20106;-83
2022/11/15 09:24:42;;;;;;;8.30;4.80;;;;;;;13.52;100.00;95708.31;4952388;29;20512;-80
2022/11/15 09:27:42;;;;;;;7.13;4.70;;;;;;;13.56;100.00;95709.56;4965625;28;20042;-82
2022/11/15 09:30:26;;;;;;;7.27;4.13;;;;;;;13.81;100.00;95702.03;4954871;28;20050;-79
2022/11/15 09:33:12;;;;;;;8.48;4.50;;;;;;;13.70;100.00;95703.38;4962511;28;20486;-81
2022/11/15 09:36:01;;;;;;;14.18;7.40;;;;;;;14.75;100.00;95704.22;4956761;28;20053;-81
2022/11/15 09:38:45;;;;;;;8.20;4.13;;;;;;;14.93;100.00;95698.38;4941315;28;21459;-82
2022/11/15 09:41:58;;;;;;;12.73;4.88;;;;;;;14.69;100.00;95699.69;4953678;28;20165;-81
2022/11/15 09:44:56;;;;;;;9.85;6.03;;;;;;;15.23;100.00;95693.56;4956150;28;20101;-80
2022/11/15 09:47:57;;;;;;;11.57;5.88;;;;;;;14.85;100.00;95702.84;4941545;28;20122;-79
2022/11/15 09:50:58;;;;;;;7.57;4.40;;;;;;;14.02;100.00;95701.19;4917730;29;20414;-82
2022/11/15 09:53:35;;;;;;;10.18;4.97;;;;;;;13.57;100.00;95708.56;4913137;29;20051;-81
2022/11/15 09:56:30;;;;;;;9.88;5.90;;;;;;;14.05;100.00;95698.97;4960872;28;20118;-82
2022/11/15 09:59:23;;;;;;;13.15;6.70;;;;;;;14.67;100.00;95694.63;4946757;28;20118;-81
2022/11/15 10:02:00;;;;;;;20.17;10.57;;;;;;;14.59;100.00;95687.69;4948118;28;20089;-79
2022/11/15 10:04:31;;;;;;;14.70;7.38;;;;;;;14.10;100.00;95685.97;4959275;28;20422;-79
2022/11/15 10:07:03;;;;;;;15.18;8.88;;;;;;;13.83;100.00;95681.53;4946593;28;20050;-79
2022/11/15 10:09:45;;;;;;;14.35;8.05;;;;;;;14.58;100.00;95677.28;4948026;28;20034;-79
2022/11/15 10:12:17;;;;;;;20.92;10.07;;;;;;;14.37;100.00;95667.59;4954818;28;20101;-79
2022/11/15 10:14:43;;;;;;;17.33;8.18;;;;;;;14.64;100.00;95676.50;4939146;28;20046;-79
2022/11/15 10:17:28;;;;;;;11.35;5.82;;;;;;;14.39;100.00;95669.03;4947032;28;20023;-79
2022/11/15 10:19:58;;;;;;;7.45;3.92;;;;;;;14.50;100.00;95669.50;4942603;28;20121;-81
2022/11/15 10:22:53;;;;;;;8.18;4.13;;;;;;;14.41;100.00;95662.72;4949641;28;20535;-80
2022/11/15 10:25:25;;;;;;;11.38;5.72;;;;;;;14.51;100.00;95663.19;4950549;28;20543;-81
2022/11/15 10:28:29;;;;;;;9.10;4.50;;;;;;;14.28;100.00;95656.34;4952366;28;20046;-81
2022/11/15 10:30:58;;;;;;;6.93;3.30;;;;;;;14.02;100.00;95654.41;4966948;28;20043;-81
2022/11/15 10:33:38;;;;;;;5.63;3.88;;;;;;;13.73;100.00;95647.50;4951713;28;20035;-81
2022/11/15 10:36:25;;;;;;;;;;;;;;;13.86;100.00;95638.84;4954327;28;20489;-80
2022/11/15 10:38:54;;;;;;;5.35;3.22;;;;;;;14.10;100.00;95634.91;4971483;28;20395;-79
2022/11/15 10:41:26;;;;;;;7.13;2.90;;;;;;;14.12;100.00;95624.97;4935286;28;20038;-79
2022/11/15 10:44:31;;;;;;;5.68;3.03;;;;;;;14.07;100.00;95622.09;4939895;28;20039;-79
2022/11/15 10:46:56;;;;;;;7.60;3.55;;;;;;;14.26;100.00;95621.38;4903693;29;20575;-81
2022/11/15 10:49:28;;;;;;;7.20;3.00;;;;;;;14.57;100.00;95618.25;4937333;28;20050;-81
2022/11/15 10:52:23;;;;;;;6.40;2.85;;;;;;;14.25;100.00;95622.38;4949389;28;20089;-83
2022/11/15 10:54:59;;;;;;;5.55;2.33;;;;;;;14.12;100.00;95623.13;4964072;28;20041;-81
2022/11/15 10:57:28;;;;;;;5.07;2.28;;;;;;;14.17;100.00;95616.44;4948884;29;20065;-83
2022/11/15 11:00:00;;;;;;;4.30;1.70;;;;;;;14.11;100.00;95612.75;4953298;28;20043;-80
2022/11/15 11:03:08;;;;;;;5.90;2.03;;;;;;;13.60;100.00;95613.88;4943663;28;20030;-80
2022/11/15 11:05:39;;;;;;;4.78;2.08;;;;;;;13.97;100.00;95611.88;4949967;28;20035;-82
2022/11/15 11:08:22;;;;;;;6.30;2.50;;;;;;;13.99;100.00;95612.50;4936714;28;20101;-81
2022/11/15 11:10:59;;;;;;;7.70;3.20;;;;;;;13.79;100.00;95612.38;4945078;28;20505;-83
2022/11/15 11:13:39;;;;;;;7.38;2.85;;;;;;;13.86;100.00;95602.66;4965584;28;20034;-83
2022/11/15 11:16:19;;;;;;;8.20;3.08;;;;;;;14.05;100.00;95609.06;4938396;28;20034;-83
2022/11/15 11:19:16;;;;;;;7.85;3.90;;;;;;;14.22;100.00;95600.78;4948860;28;20027;-82
2022/11/15 11:21:58;;;;;;;8.85;3.80;;;;;;;14.45;100.00;95608.41;4948162;28;20054;-83
2022/11/15 11:24:36;;;;;;;8.93;4.18;;;;;;;14.61;100.00;95598.31;4929529;28;20048;-82
2022/11/15 11:30:16;;;;;;;7.22;2.65;;;;;;;14.71;100.00;95597.91;4953615;28;20469;-84
2022/11/15 11:33:12;;;;;;;7.38;2.53;;;;;;;14.78;100.00;95598.75;4955552;28;20554;-86
2022/11/15 11:35:59;;;;;;;12.77;5.38;;;;;;;14.81;100.00;95595.69;4956234;28;20040;-84
2022/11/15 11:38:43;;;;;;;7.75;2.85;;;;;;;14.59;100.00;95599.53;4944026;29;20031;-84
2022/11/15 11:41:44;;;;;;;7.68;2.83;;;;;;;14.87;100.00;95593.28;4939127;28;20077;-85
2022/11/15 11:44:19;;;;;;;9.02;4.07;;;;;;;14.99;100.00;95596.94;4963293;28;20113;-85
2022/11/15 11:46:56;;;;;;;7.82;3.83;;;;;;;15.15;100.00;95583.31;4952814;28;20034;-82
2022/11/15 11:49:41;;;;;;;5.05;2.42;;;;;;;15.65;100.00;95588.16;4942419;28;20031;-81
2022/11/15 11:52:41;;;;;;;6.85;2.70;;;;;;;15.48;100.00;95578.00;4952804;28;20030;-81
2022/11/15 11:55:24;;;;;;;4.50;1.60;;;;;;;15.50;100.00;95572.50;4938383;28;20061;-79
2022/11/15 11:58:22;;;;;;;5.93;1.65;;;;;;;15.48;99.56;95571.88;4939895;28;20037;-81
2022/11/15 12:01:27;;;;;;;5.00;1.80;;;;;;;15.57;100.00;95568.00;4921583;28;20059;-81
2022/11/15 12:03:59;;;;;;;2.47;1.33;;;;;;;14.83;100.00;95571.69;4943818;28;20396;-80
2022/11/15 12:06:40;;;;;;;2.65;1.52;;;;;;;14.80;97.17;95574.75;4950519;28;20037;-81
2022/11/15 12:09:50;;;;;;;2.45;1.58;;;;;;;14.82;98.49;95576.19;4953208;28;20038;-81
2022/11/15 12:12:27;;;;;;;2.72;1.42;;;;;;;14.73;94.47;95580.03;4903297;29;20188;-81
2022/11/15 12:15:08;;;;;;;3.35;1.73;;;;;;;14.67;97.27;95580.81;4885680;29;20044;-80
2022/11/15 12:17:34;;;;;;;2.70;1.38;;;;;;;14.79;100.00;95573.13;4936220;28;20046;-81
2022/11/15 12:20:14;;;;;;;1.95;1.25;;;;;;;15.01;100.00;95571.91;4944769;28;20047;-81
2022/11/15 12:23:02;;;;;;;5.70;2.80;;;;;;;15.18;100.00;95567.00;4929172;29;20187;-83
2022/11/15 12:25:56;;;;;;;5.90;2.50;;;;;;;15.40;100.00;95570.28;4944750;28;20038;-81
2022/11/15 12:28:38;;;;;;;5.60;2.03;;;;;;;15.33;100.00;95562.34;4958980;28;20062;-81
2022/11/15 12:31:34;;;;;;;12.52;3.42;;;;;;;15.67;100.00;95560.47;4958808;28;20035;-82
2022/11/15 12:34:02;;;;;;;9.60;2.55;;;;;;;15.54;100.00;95558.63;4962438;28;20093;-83
2022/11/15 12:36:41;;;;;;;7.43;3.28;;;;;;;15.28;100.00;95554.16;4954820;28;20027;-84
2022/11/15 12:39:09;;;;;;;13.57;4.25;;;;;;;15.58;100.00;95548.44;4952229;28;20034;-84
2022/11/15 12:41:37;;;;;;;8.38;3.53;;;;;;;15.48;100.00;95548.03;4949451;28;20050;-82
2022/11/15 12:44:31;;;;;;;10.55;4.00;;;;;;;15.67;100.00;95533.16;4947679;28;20065;-83
2022/11/15 12:46:57;;;;;;;3.83;1.88;;;;;;;15.42;100.00;95525.81;4952513;28;20097;-80
2022/11/15 12:49:27;;;;;;;4.07;2.28;;;;;;;15.30;100.00;95528.31;4952870;28;20751;-81
2022/11/15 12:52:01;;;;;;;4.88;2.00;;;;;;;15.13;100.00;95532.41;4954086;28;20071;-80
2022/11/15 12:54:29;;;;;;;6.97;2.55;;;;;;;15.41;100.00;95534.00;4950172;28;20038;-82
2022/11/15 12:57:17;;;;;;;8.80;3.20;;;;;;;14.85;100.00;95527.28;4953158;28;20043;-81
2022/11/15 13:00:01;;;;;;;6.60;3.53;;;;;;;14.87;100.00;95530.56;4946001;29;20039;-81
2022/11/15 13:02:45;;;;;;;5.20;2.47;;;;;;;14.62;100.00;95527.69;4958120;28;20125;-84
2022/11/15 13:05:15;;;;;;;5.32;2.38;;;;;;;14.67;100.00;95533.19;4944114;28;20035;-82
2022/11/15 13:07:41;;;;;;;4.28;2.13;;;;;;;14.67;100.00;95527.88;4966199;28;20564;-81
2022/11/15 13:10:12;;;;;;;6.18;2.50;;;;;;;14.65;100.00;95523.81;4937327;28;20035;-80
2022/11/15 13:12:41;;;;;;;3.25;1.80;;;;;;;14.63;100.00;95520.56;4960721;28;20045;-81
2022/11/15 13:15:13;;;;;;;7.68;2.45;;;;;;;14.72;100.00;95520.19;4952095;28;20248;-82
2022/11/15 13:17:42;;;;;;;3.70;1.80;;;;;;;14.59;100.00;95515.69;4940363;28;20034;-81
2022/11/15 13:20:10;;;;;;;6.15;1.98;;;;;;;14.46;100.00;95520.91;4930552;28;20031;-81
2022/11/15 13:22:50;;;;;;;6.85;2.30;;;;;;;14.49;100.00;95517.06;4928538;28;20512;-82